sensor_id;sensor_type;location;lat;lon;timestamp;temperature;humidity
837;DHT22;400;53.550;9.932;2023-04-15T00:01:50;9.60;99.90
837;DHT22;400;53.550;9.932;2023-04-15T00:04:18;9.60;99.90
837;DHT22;400;53.550;9.932;2023-04-15T00:06:50;9.70;99.90
837;DHT22;400;53.550;9.932;2023-04-15T00:09:18;9.70;99.90
837;DHT22;400;53.550;9.932;2023-04-15T00:11:45;9.70;99.90
837;DHT22;400;53.550;9.932;2023-04-15T00:14:12;9.70;99.90
837;DHT22;400;53.550;9.932;2023-04-15T00:16:39;9.70;99.90
837;DHT22;400;53.550;9.932;2023-04-15T00:19:07;9.70;99.90
837;DHT22;400;53.550;9.932;2023-04-15T00:21:34;9.70;99.90
837;DHT22;400;53.550;9.932;2023-04-15T00:24:03;9.70;99.90
837;DHT22;400;53.550;9.932;2023-04-15T00:26:30;9.70;99.90
837;DHT22;400;53.550;9.932;2023-04-15T00:28:57;9.70;99.90
837;DHT22;400;53.550;9.932;2023-04-15T00:31:24;9.70;99.90
837;DHT22;400;53.550;9.932;2023-04-15T00:33:52;9.70;99.90
837;DHT22;400;53.550;9.932;2023-04-15T00:36:19;9.70;99.90
837;DHT22;400;53.550;9.932;2023-04-15T00:38:46;9.70;99.90
837;DHT22;400;53.550;9.932;2023-04-15T00:41:14;9.70;99.90
837;DHT22;400;53.550;9.932;2023-04-15T00:43:41;9.70;99.90
837;DHT22;400;53.550;9.932;2023-04-15T00:46:08;9.70;99.90
837;DHT22;400;53.550;9.932;2023-04-15T00:48:35;9.70;99.90
837;DHT22;400;53.550;9.932;2023-04-15T00:51:03;9.70;99.90
837;DHT22;400;53.550;9.932;2023-04-15T00:53:30;9.70;99.90
837;DHT22;400;53.550;9.932;2023-04-15T00:55:57;9.60;99.90
837;DHT22;400;53.550;9.932;2023-04-15T00:58:28;9.60;99.90
837;DHT22;400;53.550;9.932;2023-04-15T01:00:55;9.60;99.90
837;DHT22;400;53.550;9.932;2023-04-15T01:03:22;9.60;99.90
837;DHT22;400;53.550;9.932;2023-04-15T01:05:50;9.60;99.90
837;DHT22;400;53.550;9.932;2023-04-15T01:08:17;9.70;99.90
837;DHT22;400;53.550;9.932;2023-04-15T01:10:44;9.60;99.90
837;DHT22;400;53.550;9.932;2023-04-15T01:13:11;9.70;99.90
837;DHT22;400;53.550;9.932;2023-04-15T01:15:45;9.60;99.90
837;DHT22;400;53.550;9.932;2023-04-15T01:18:18;9.60;99.90
837;DHT22;400;53.550;9.932;2023-04-15T01:20:47;9.60;99.90
837;DHT22;400;53.550;9.932;2023-04-15T01:23:14;9.60;99.90
837;DHT22;400;53.550;9.932;2023-04-15T01:25:44;9.60;99.90
837;DHT22;400;53.550;9.932;2023-04-15T01:28:12;9.60;99.90
837;DHT22;400;53.550;9.932;2023-04-15T01:30:39;9.60;99.90
837;DHT22;400;53.550;9.932;2023-04-15T01:33:06;9.60;99.90
837;DHT22;400;53.550;9.932;2023-04-15T01:35:33;9.50;99.90
837;DHT22;400;53.550;9.932;2023-04-15T01:38:03;9.60;99.90
837;DHT22;400;53.550;9.932;2023-04-15T01:40:31;9.60;99.90
837;DHT22;400;53.550;9.932;2023-04-15T01:42:59;9.70;99.90
837;DHT22;400;53.550;9.932;2023-04-15T01:45:26;9.70;99.90
837;DHT22;400;53.550;9.932;2023-04-15T01:47:53;9.60;99.90
837;DHT22;400;53.550;9.932;2023-04-15T01:50:21;9.70;99.90
837;DHT22;400;53.550;9.932;2023-04-15T01:52:47;9.60;99.90
837;DHT22;400;53.550;9.932;2023-04-15T01:55:14;9.60;99.90
837;DHT22;400;53.550;9.932;2023-04-15T01:57:41;9.50;99.90
837;DHT22;400;53.550;9.932;2023-04-15T02:00:10;9.60;99.90
837;DHT22;400;53.550;9.932;2023-04-15T02:02:37;9.60;99.90
837;DHT22;400;53.550;9.932;2023-04-15T02:05:05;9.60;99.90
837;DHT22;400;53.550;9.932;2023-04-15T02:07:32;9.60;99.90
837;DHT22;400;53.550;9.932;2023-04-15T02:09:59;9.60;99.90
837;DHT22;400;53.550;9.932;2023-04-15T02:12:25;9.60;99.90
837;DHT22;400;53.550;9.932;2023-04-15T02:14:52;9.60;99.90
837;DHT22;400;53.550;9.932;2023-04-15T02:17:21;9.60;99.90
837;DHT22;400;53.550;9.932;2023-04-15T02:19:48;9.50;99.90
837;DHT22;400;53.550;9.932;2023-04-15T02:22:15;9.60;99.90
837;DHT22;400;53.550;9.932;2023-04-15T02:24:43;9.60;99.90
837;DHT22;400;53.550;9.932;2023-04-15T02:27:14;9.50;99.90
837;DHT22;400;53.550;9.932;2023-04-15T02:29:42;9.50;99.90
837;DHT22;400;53.550;9.932;2023-04-15T02:32:11;9.50;99.90
837;DHT22;400;53.550;9.932;2023-04-15T02:34:42;9.50;99.90
837;DHT22;400;53.550;9.932;2023-04-15T02:37:12;9.50;99.90
837;DHT22;400;53.550;9.932;2023-04-15T02:39:41;9.50;99.90
837;DHT22;400;53.550;9.932;2023-04-15T02:42:09;9.50;99.90
837;DHT22;400;53.550;9.932;2023-04-15T02:44:37;9.50;99.90
837;DHT22;400;53.550;9.932;2023-04-15T02:47:04;9.50;99.90
837;DHT22;400;53.550;9.932;2023-04-15T02:49:32;9.50;99.90
837;DHT22;400;53.550;9.932;2023-04-15T02:52:00;9.60;99.90
837;DHT22;400;53.550;9.932;2023-04-15T02:54:27;9.60;99.90
837;DHT22;400;53.550;9.932;2023-04-15T02:56:54;9.50;99.90
837;DHT22;400;53.550;9.932;2023-04-15T02:59:21;9.60;99.90
837;DHT22;400;53.550;9.932;2023-04-15T03:01:48;9.60;99.90
837;DHT22;400;53.550;9.932;2023-04-15T03:04:15;9.50;99.90
837;DHT22;400;53.550;9.932;2023-04-15T03:06:42;9.60;99.90
837;DHT22;400;53.550;9.932;2023-04-15T03:09:10;9.60;99.90
837;DHT22;400;53.550;9.932;2023-04-15T03:11:37;9.60;99.90
837;DHT22;400;53.550;9.932;2023-04-15T03:14:07;9.60;99.90
837;DHT22;400;53.550;9.932;2023-04-15T03:16:33;9.50;99.90
837;DHT22;400;53.550;9.932;2023-04-15T03:19:00;9.50;99.90
837;DHT22;400;53.550;9.932;2023-04-15T03:21:27;9.60;99.90
837;DHT22;400;53.550;9.932;2023-04-15T03:23:54;9.60;99.90
837;DHT22;400;53.550;9.932;2023-04-15T03:26:27;9.50;99.90
837;DHT22;400;53.550;9.932;2023-04-15T03:28:54;9.50;99.90
837;DHT22;400;53.550;9.932;2023-04-15T03:31:22;9.50;99.90
837;DHT22;400;53.550;9.932;2023-04-15T03:33:49;9.60;99.90
837;DHT22;400;53.550;9.932;2023-04-15T03:36:16;9.60;99.90
837;DHT22;400;53.550;9.932;2023-04-15T03:38:43;9.60;99.90
837;DHT22;400;53.550;9.932;2023-04-15T03:41:10;9.50;99.90
837;DHT22;400;53.550;9.932;2023-04-15T03:43:38;9.50;99.90
837;DHT22;400;53.550;9.932;2023-04-15T03:46:05;9.50;99.90
837;DHT22;400;53.550;9.932;2023-04-15T03:48:31;9.40;99.90
837;DHT22;400;53.550;9.932;2023-04-15T03:50:58;9.50;99.90
837;DHT22;400;53.550;9.932;2023-04-15T03:53:25;9.50;99.90
837;DHT22;400;53.550;9.932;2023-04-15T03:55:52;9.50;99.90
837;DHT22;400;53.550;9.932;2023-04-15T03:58:19;9.50;99.90
837;DHT22;400;53.550;9.932;2023-04-15T04:00:47;9.40;99.90
837;DHT22;400;53.550;9.932;2023-04-15T04:03:14;9.40;99.90
837;DHT22;400;53.550;9.932;2023-04-15T04:05:42;9.50;99.90
837;DHT22;400;53.550;9.932;2023-04-15T04:08:11;9.50;99.90
837;DHT22;400;53.550;9.932;2023-04-15T04:10:43;9.50;99.90
837;DHT22;400;53.550;9.932;2023-04-15T04:13:13;9.50;99.90
837;DHT22;400;53.550;9.932;2023-04-15T04:15:40;9.50;99.90
837;DHT22;400;53.550;9.932;2023-04-15T04:18:08;9.50;99.90
837;DHT22;400;53.550;9.932;2023-04-15T04:20:35;9.50;99.90
837;DHT22;400;53.550;9.932;2023-04-15T04:23:02;9.40;99.90
837;DHT22;400;53.550;9.932;2023-04-15T04:25:29;9.50;99.90
837;DHT22;400;53.550;9.932;2023-04-15T04:27:56;9.50;99.90
837;DHT22;400;53.550;9.932;2023-04-15T04:30:23;9.60;99.90
837;DHT22;400;53.550;9.932;2023-04-15T04:32:51;9.60;99.90
837;DHT22;400;53.550;9.932;2023-04-15T04:35:19;9.50;99.90
837;DHT22;400;53.550;9.932;2023-04-15T04:37:47;9.50;99.90
837;DHT22;400;53.550;9.932;2023-04-15T04:40:14;9.50;99.90
837;DHT22;400;53.550;9.932;2023-04-15T04:42:41;9.60;99.90
837;DHT22;400;53.550;9.932;2023-04-15T04:45:08;9.60;99.90
837;DHT22;400;53.550;9.932;2023-04-15T04:47:35;9.60;99.90
837;DHT22;400;53.550;9.932;2023-04-15T04:50:03;9.50;99.90
837;DHT22;400;53.550;9.932;2023-04-15T04:52:32;9.60;99.90
837;DHT22;400;53.550;9.932;2023-04-15T04:55:00;9.60;99.90
837;DHT22;400;53.550;9.932;2023-04-15T04:57:27;9.60;99.90
837;DHT22;400;53.550;9.932;2023-04-15T04:59:54;9.60;99.90
837;DHT22;400;53.550;9.932;2023-04-15T05:02:20;9.50;99.90
837;DHT22;400;53.550;9.932;2023-04-15T05:04:47;9.60;99.90
837;DHT22;400;53.550;9.932;2023-04-15T05:07:14;9.60;99.90
837;DHT22;400;53.550;9.932;2023-04-15T05:09:43;9.60;99.90
837;DHT22;400;53.550;9.932;2023-04-15T05:12:10;9.60;99.90
837;DHT22;400;53.550;9.932;2023-04-15T05:14:40;9.60;99.90
837;DHT22;400;53.550;9.932;2023-04-15T05:17:08;9.60;99.90
837;DHT22;400;53.550;9.932;2023-04-15T05:19:37;9.60;99.90
837;DHT22;400;53.550;9.932;2023-04-15T05:22:04;9.60;99.90
837;DHT22;400;53.550;9.932;2023-04-15T05:24:31;9.60;99.90
837;DHT22;400;53.550;9.932;2023-04-15T05:27:03;9.60;99.90
837;DHT22;400;53.550;9.932;2023-04-15T05:29:35;9.70;99.90
837;DHT22;400;53.550;9.932;2023-04-15T05:32:04;9.60;99.90
837;DHT22;400;53.550;9.932;2023-04-15T05:34:31;9.60;99.90
837;DHT22;400;53.550;9.932;2023-04-15T05:36:58;9.60;99.90
837;DHT22;400;53.550;9.932;2023-04-15T05:39:25;9.60;99.90
837;DHT22;400;53.550;9.932;2023-04-15T05:41:54;9.60;99.90
837;DHT22;400;53.550;9.932;2023-04-15T05:44:29;9.70;99.90
837;DHT22;400;53.550;9.932;2023-04-15T05:46:58;9.60;99.90
837;DHT22;400;53.550;9.932;2023-04-15T05:49:25;9.60;99.90
837;DHT22;400;53.550;9.932;2023-04-15T05:51:52;9.70;99.90
837;DHT22;400;53.550;9.932;2023-04-15T05:54:19;9.70;99.90
837;DHT22;400;53.550;9.932;2023-04-15T05:56:46;9.70;99.90
837;DHT22;400;53.550;9.932;2023-04-15T05:59:13;9.70;99.90
837;DHT22;400;53.550;9.932;2023-04-15T06:01:42;9.70;99.90
837;DHT22;400;53.550;9.932;2023-04-15T06:04:09;9.70;99.90
837;DHT22;400;53.550;9.932;2023-04-15T06:06:36;9.70;99.90
837;DHT22;400;53.550;9.932;2023-04-15T06:09:03;9.70;99.90
837;DHT22;400;53.550;9.932;2023-04-15T06:11:31;9.80;99.90
837;DHT22;400;53.550;9.932;2023-04-15T06:13:58;9.80;99.90
837;DHT22;400;53.550;9.932;2023-04-15T06:16:25;9.80;99.90
837;DHT22;400;53.550;9.932;2023-04-15T06:18:53;9.80;99.90
837;DHT22;400;53.550;9.932;2023-04-15T06:21:20;9.80;99.90
837;DHT22;400;53.550;9.932;2023-04-15T06:23:47;9.80;99.90
837;DHT22;400;53.550;9.932;2023-04-15T06:26:14;9.90;99.90
837;DHT22;400;53.550;9.932;2023-04-15T06:28:41;9.80;99.90
837;DHT22;400;53.550;9.932;2023-04-15T06:31:08;9.90;99.90
837;DHT22;400;53.550;9.932;2023-04-15T06:33:35;9.90;99.90
837;DHT22;400;53.550;9.932;2023-04-15T06:36:03;9.90;99.90
837;DHT22;400;53.550;9.932;2023-04-15T06:38:30;9.80;99.90
837;DHT22;400;53.550;9.932;2023-04-15T06:40:59;9.80;99.90
837;DHT22;400;53.550;9.932;2023-04-15T06:43:30;9.90;99.90
837;DHT22;400;53.550;9.932;2023-04-15T06:46:01;9.90;99.90
837;DHT22;400;53.550;9.932;2023-04-15T06:48:35;9.90;99.90
837;DHT22;400;53.550;9.932;2023-04-15T06:51:07;9.80;99.90
837;DHT22;400;53.550;9.932;2023-04-15T06:53:34;9.90;99.90
837;DHT22;400;53.550;9.932;2023-04-15T06:56:08;9.80;99.90
837;DHT22;400;53.550;9.932;2023-04-15T06:58:39;9.80;99.90
837;DHT22;400;53.550;9.932;2023-04-15T07:01:10;9.80;99.90
837;DHT22;400;53.550;9.932;2023-04-15T07:03:41;9.90;99.90
837;DHT22;400;53.550;9.932;2023-04-15T07:06:09;9.90;99.90
837;DHT22;400;53.550;9.932;2023-04-15T07:08:41;9.90;99.90
837;DHT22;400;53.550;9.932;2023-04-15T07:11:08;9.90;99.90
837;DHT22;400;53.550;9.932;2023-04-15T07:13:35;9.90;99.90
837;DHT22;400;53.550;9.932;2023-04-15T07:16:03;9.80;99.90
837;DHT22;400;53.550;9.932;2023-04-15T07:18:30;9.80;99.90
837;DHT22;400;53.550;9.932;2023-04-15T07:20:57;9.80;99.90
837;DHT22;400;53.550;9.932;2023-04-15T07:23:25;9.90;99.90
837;DHT22;400;53.550;9.932;2023-04-15T07:25:52;9.90;99.90
837;DHT22;400;53.550;9.932;2023-04-15T07:28:20;9.90;99.90
837;DHT22;400;53.550;9.932;2023-04-15T07:30:47;9.90;99.90
837;DHT22;400;53.550;9.932;2023-04-15T07:33:14;9.90;99.90
837;DHT22;400;53.550;9.932;2023-04-15T07:35:41;10.00;99.90
837;DHT22;400;53.550;9.932;2023-04-15T07:38:08;10.00;99.90
837;DHT22;400;53.550;9.932;2023-04-15T07:40:38;10.10;99.90
837;DHT22;400;53.550;9.932;2023-04-15T07:43:07;10.10;99.90
837;DHT22;400;53.550;9.932;2023-04-15T07:45:34;10.20;99.90
837;DHT22;400;53.550;9.932;2023-04-15T07:48:01;10.20;99.90
837;DHT22;400;53.550;9.932;2023-04-15T07:50:28;10.00;99.90
837;DHT22;400;53.550;9.932;2023-04-15T07:52:58;10.10;99.90
837;DHT22;400;53.550;9.932;2023-04-15T07:55:32;10.10;99.90
837;DHT22;400;53.550;9.932;2023-04-15T07:58:04;10.00;99.90
837;DHT22;400;53.550;9.932;2023-04-15T08:00:31;10.10;99.90
837;DHT22;400;53.550;9.932;2023-04-15T08:02:58;10.10;99.90
837;DHT22;400;53.550;9.932;2023-04-15T08:05:26;10.10;99.90
837;DHT22;400;53.550;9.932;2023-04-15T08:07:54;10.20;99.90
837;DHT22;400;53.550;9.932;2023-04-15T08:10:21;10.20;99.90
837;DHT22;400;53.550;9.932;2023-04-15T08:12:48;10.20;99.90
837;DHT22;400;53.550;9.932;2023-04-15T08:15:20;10.20;99.90
837;DHT22;400;53.550;9.932;2023-04-15T08:17:47;10.10;99.90
837;DHT22;400;53.550;9.932;2023-04-15T08:20:14;10.20;99.90
837;DHT22;400;53.550;9.932;2023-04-15T08:22:44;10.20;99.90
837;DHT22;400;53.550;9.932;2023-04-15T08:25:18;10.30;99.90
837;DHT22;400;53.550;9.932;2023-04-15T08:27:47;10.30;99.90
837;DHT22;400;53.550;9.932;2023-04-15T08:30:14;10.30;99.90
837;DHT22;400;53.550;9.932;2023-04-15T08:32:44;10.20;99.90
837;DHT22;400;53.550;9.932;2023-04-15T08:35:15;10.20;99.90
837;DHT22;400;53.550;9.932;2023-04-15T08:37:42;10.20;99.90
837;DHT22;400;53.550;9.932;2023-04-15T08:40:10;10.20;99.90
837;DHT22;400;53.550;9.932;2023-04-15T08:42:43;10.20;99.90
837;DHT22;400;53.550;9.932;2023-04-15T08:45:10;10.20;99.90
837;DHT22;400;53.550;9.932;2023-04-15T08:47:41;10.20;99.90
837;DHT22;400;53.550;9.932;2023-04-15T08:50:09;10.30;99.90
837;DHT22;400;53.550;9.932;2023-04-15T08:52:37;10.30;99.90
837;DHT22;400;53.550;9.932;2023-04-15T08:55:07;10.20;99.90
837;DHT22;400;53.550;9.932;2023-04-15T08:57:36;10.30;99.90
837;DHT22;400;53.550;9.932;2023-04-15T09:00:05;10.40;99.90
837;DHT22;400;53.550;9.932;2023-04-15T09:02:34;10.50;99.90
837;DHT22;400;53.550;9.932;2023-04-15T09:05:02;10.60;99.90
837;DHT22;400;53.550;9.932;2023-04-15T09:07:33;10.60;99.90
837;DHT22;400;53.550;9.932;2023-04-15T09:10:00;10.70;99.90
837;DHT22;400;53.550;9.932;2023-04-15T09:12:30;10.70;99.90
837;DHT22;400;53.550;9.932;2023-04-15T09:14:57;10.80;99.90
837;DHT22;400;53.550;9.932;2023-04-15T09:17:26;10.70;99.90
837;DHT22;400;53.550;9.932;2023-04-15T09:20:11;10.80;99.90
837;DHT22;400;53.550;9.932;2023-04-15T09:22:45;10.80;99.90
837;DHT22;400;53.550;9.932;2023-04-15T09:25:27;10.80;99.90
837;DHT22;400;53.550;9.932;2023-04-15T09:27:57;10.80;99.90
837;DHT22;400;53.550;9.932;2023-04-15T09:30:27;10.80;99.90
837;DHT22;400;53.550;9.932;2023-04-15T09:32:56;10.70;99.90
837;DHT22;400;53.550;9.932;2023-04-15T09:35:26;10.90;99.90
837;DHT22;400;53.550;9.932;2023-04-15T09:38:00;10.90;99.90
837;DHT22;400;53.550;9.932;2023-04-15T09:40:31;11.10;99.90
837;DHT22;400;53.550;9.932;2023-04-15T09:43:00;11.20;99.90
837;DHT22;400;53.550;9.932;2023-04-15T09:45:28;11.30;99.90
837;DHT22;400;53.550;9.932;2023-04-15T09:47:56;11.40;99.90
837;DHT22;400;53.550;9.932;2023-04-15T09:50:28;11.50;99.90
837;DHT22;400;53.550;9.932;2023-04-15T09:52:57;11.60;99.90
837;DHT22;400;53.550;9.932;2023-04-15T09:55:27;11.80;99.90
837;DHT22;400;53.550;9.932;2023-04-15T09:58:07;11.80;99.90
837;DHT22;400;53.550;9.932;2023-04-15T10:00:38;11.90;99.90
837;DHT22;400;53.550;9.932;2023-04-15T10:03:10;11.80;99.90
837;DHT22;400;53.550;9.932;2023-04-15T10:05:41;11.90;99.90
837;DHT22;400;53.550;9.932;2023-04-15T10:08:12;12.00;99.90
837;DHT22;400;53.550;9.932;2023-04-15T10:10:39;12.10;99.90
837;DHT22;400;53.550;9.932;2023-04-15T10:13:07;12.20;99.90
837;DHT22;400;53.550;9.932;2023-04-15T10:15:38;12.20;99.90
837;DHT22;400;53.550;9.932;2023-04-15T10:18:15;12.30;99.90
837;DHT22;400;53.550;9.932;2023-04-15T10:20:45;12.30;99.90
837;DHT22;400;53.550;9.932;2023-04-15T10:23:14;12.30;99.90
837;DHT22;400;53.550;9.932;2023-04-15T10:25:45;12.30;99.90
837;DHT22;400;53.550;9.932;2023-04-15T10:28:14;12.40;99.90
837;DHT22;400;53.550;9.932;2023-04-15T10:30:42;12.50;99.90
837;DHT22;400;53.550;9.932;2023-04-15T10:33:10;12.70;99.90
837;DHT22;400;53.550;9.932;2023-04-15T10:35:38;12.80;99.90
837;DHT22;400;53.550;9.932;2023-04-15T10:41:16;13.00;99.90
837;DHT22;400;53.550;9.932;2023-04-15T10:43:52;13.10;99.90
837;DHT22;400;53.550;9.932;2023-04-15T10:46:21;13.10;99.90
837;DHT22;400;53.550;9.932;2023-04-15T10:48:50;13.20;99.90
837;DHT22;400;53.550;9.932;2023-04-15T10:51:29;13.30;99.90
837;DHT22;400;53.550;9.932;2023-04-15T10:53:58;13.40;99.90
837;DHT22;400;53.550;9.932;2023-04-15T10:56:27;13.40;99.90
837;DHT22;400;53.550;9.932;2023-04-15T10:58:57;13.50;99.90
837;DHT22;400;53.550;9.932;2023-04-15T11:01:49;13.50;99.90
837;DHT22;400;53.550;9.932;2023-04-15T11:07:38;13.60;99.90
837;DHT22;400;53.550;9.932;2023-04-15T11:13:18;13.90;99.90
837;DHT22;400;53.550;9.932;2023-04-15T11:15:48;14.00;99.90
837;DHT22;400;53.550;9.932;2023-04-15T11:18:17;14.10;99.90
837;DHT22;400;53.550;9.932;2023-04-15T11:20:47;14.20;99.90
837;DHT22;400;53.550;9.932;2023-04-15T11:23:19;14.20;99.90
837;DHT22;400;53.550;9.932;2023-04-15T11:25:54;14.30;99.90
837;DHT22;400;53.550;9.932;2023-04-15T11:28:26;14.30;99.90
837;DHT22;400;53.550;9.932;2023-04-15T11:30:54;14.30;99.90
837;DHT22;400;53.550;9.932;2023-04-15T11:33:21;14.30;99.90
837;DHT22;400;53.550;9.932;2023-04-15T11:35:50;14.30;99.90
837;DHT22;400;53.550;9.932;2023-04-15T11:38:18;14.30;99.90
837;DHT22;400;53.550;9.932;2023-04-15T11:40:47;14.30;99.90
837;DHT22;400;53.550;9.932;2023-04-15T11:43:15;14.20;99.90
837;DHT22;400;53.550;9.932;2023-04-15T11:45:50;14.20;99.90
837;DHT22;400;53.550;9.932;2023-04-15T11:48:19;14.20;99.90
837;DHT22;400;53.550;9.932;2023-04-15T11:50:52;14.20;99.90
837;DHT22;400;53.550;9.932;2023-04-15T11:53:19;14.10;99.90
837;DHT22;400;53.550;9.932;2023-04-15T11:55:48;14.20;99.90
837;DHT22;400;53.550;9.932;2023-04-15T11:58:17;14.20;99.90
837;DHT22;400;53.550;9.932;2023-04-15T12:00:47;14.20;99.90
837;DHT22;400;53.550;9.932;2023-04-15T12:03:21;14.20;99.90
837;DHT22;400;53.550;9.932;2023-04-15T12:06:12;14.20;99.90
837;DHT22;400;53.550;9.932;2023-04-15T12:09:00;14.20;99.90
837;DHT22;400;53.550;9.932;2023-04-15T12:11:35;14.20;99.90
837;DHT22;400;53.550;9.932;2023-04-15T12:14:05;14.20;99.90
837;DHT22;400;53.550;9.932;2023-04-15T12:16:33;14.30;99.90
837;DHT22;400;53.550;9.932;2023-04-15T12:19:04;14.20;99.90
837;DHT22;400;53.550;9.932;2023-04-15T12:21:38;14.30;99.90
837;DHT22;400;53.550;9.932;2023-04-15T12:24:07;14.20;99.90
837;DHT22;400;53.550;9.932;2023-04-15T12:26:37;14.10;99.90
837;DHT22;400;53.550;9.932;2023-04-15T12:29:08;14.10;99.90
837;DHT22;400;53.550;9.932;2023-04-15T12:31:37;14.20;99.90
837;DHT22;400;53.550;9.932;2023-04-15T12:34:16;14.20;99.90
837;DHT22;400;53.550;9.932;2023-04-15T12:36:51;14.20;99.90
837;DHT22;400;53.550;9.932;2023-04-15T12:39:26;14.10;99.90
837;DHT22;400;53.550;9.932;2023-04-15T12:41:54;14.10;99.90
837;DHT22;400;53.550;9.932;2023-04-15T12:44:22;14.10;99.90
837;DHT22;400;53.550;9.932;2023-04-15T12:46:49;14.20;99.90
837;DHT22;400;53.550;9.932;2023-04-15T12:49:21;14.10;99.90
837;DHT22;400;53.550;9.932;2023-04-15T12:51:50;14.20;99.90
837;DHT22;400;53.550;9.932;2023-04-15T12:54:21;14.20;99.90
837;DHT22;400;53.550;9.932;2023-04-15T12:56:51;14.20;99.90
837;DHT22;400;53.550;9.932;2023-04-15T12:59:20;14.10;99.90
837;DHT22;400;53.550;9.932;2023-04-15T13:01:53;14.00;99.90
837;DHT22;400;53.550;9.932;2023-04-15T13:04:24;14.10;99.90
837;DHT22;400;53.550;9.932;2023-04-15T13:06:55;14.00;99.90
837;DHT22;400;53.550;9.932;2023-04-15T13:09:22;13.90;99.90
837;DHT22;400;53.550;9.932;2023-04-15T13:11:50;13.90;99.90
837;DHT22;400;53.550;9.932;2023-04-15T13:14:18;14.00;99.90
837;DHT22;400;53.550;9.932;2023-04-15T13:16:45;14.00;99.90
837;DHT22;400;53.550;9.932;2023-04-15T13:19:13;14.00;99.90
837;DHT22;400;53.550;9.932;2023-04-15T13:21:41;13.90;99.90
837;DHT22;400;53.550;9.932;2023-04-15T13:24:08;14.00;99.90
837;DHT22;400;53.550;9.932;2023-04-15T13:26:45;14.10;99.90
837;DHT22;400;53.550;9.932;2023-04-15T13:29:13;14.20;99.90
837;DHT22;400;53.550;9.932;2023-04-15T13:31:42;14.30;99.90
837;DHT22;400;53.550;9.932;2023-04-15T13:34:11;14.30;99.90
837;DHT22;400;53.550;9.932;2023-04-15T13:36:38;14.30;99.90
837;DHT22;400;53.550;9.932;2023-04-15T13:39:06;14.30;99.90
837;DHT22;400;53.550;9.932;2023-04-15T13:41:33;14.40;99.90
837;DHT22;400;53.550;9.932;2023-04-15T13:44:00;14.50;99.90
837;DHT22;400;53.550;9.932;2023-04-15T13:46:27;14.50;99.90
837;DHT22;400;53.550;9.932;2023-04-15T13:48:54;14.60;99.90
837;DHT22;400;53.550;9.932;2023-04-15T13:51:22;14.70;99.90
837;DHT22;400;53.550;9.932;2023-04-15T13:53:49;14.60;99.90
837;DHT22;400;53.550;9.932;2023-04-15T13:56:18;14.60;99.90
837;DHT22;400;53.550;9.932;2023-04-15T13:58:46;14.80;99.90
837;DHT22;400;53.550;9.932;2023-04-15T14:01:13;14.90;99.90
837;DHT22;400;53.550;9.932;2023-04-15T14:03:40;14.90;99.90
837;DHT22;400;53.550;9.932;2023-04-15T14:06:07;15.00;99.90
837;DHT22;400;53.550;9.932;2023-04-15T14:08:34;15.00;99.90
837;DHT22;400;53.550;9.932;2023-04-15T14:11:01;15.00;99.90
837;DHT22;400;53.550;9.932;2023-04-15T14:13:29;15.00;99.90
837;DHT22;400;53.550;9.932;2023-04-15T14:15:56;15.10;99.90
837;DHT22;400;53.550;9.932;2023-04-15T14:18:23;15.10;99.90
837;DHT22;400;53.550;9.932;2023-04-15T14:20:52;15.10;99.90
837;DHT22;400;53.550;9.932;2023-04-15T14:23:24;14.80;99.90
837;DHT22;400;53.550;9.932;2023-04-15T14:25:51;14.60;99.90
837;DHT22;400;53.550;9.932;2023-04-15T14:28:18;14.60;99.90
837;DHT22;400;53.550;9.932;2023-04-15T14:30:49;14.50;99.90
837;DHT22;400;53.550;9.932;2023-04-15T14:33:21;14.60;99.90
837;DHT22;400;53.550;9.932;2023-04-15T14:36:01;14.70;99.90
837;DHT22;400;53.550;9.932;2023-04-15T14:38:33;14.70;99.90
837;DHT22;400;53.550;9.932;2023-04-15T14:41:03;14.70;99.90
837;DHT22;400;53.550;9.932;2023-04-15T14:43:30;14.60;99.90
837;DHT22;400;53.550;9.932;2023-04-15T14:45:58;14.70;99.90
837;DHT22;400;53.550;9.932;2023-04-15T14:48:27;14.70;99.90
837;DHT22;400;53.550;9.932;2023-04-15T14:50:58;14.70;99.90
837;DHT22;400;53.550;9.932;2023-04-15T14:53:30;14.60;99.90
837;DHT22;400;53.550;9.932;2023-04-15T14:55:59;14.50;99.90
837;DHT22;400;53.550;9.932;2023-04-15T14:58:31;14.60;99.90
837;DHT22;400;53.550;9.932;2023-04-15T15:01:05;14.70;99.90
837;DHT22;400;53.550;9.932;2023-04-15T15:03:39;14.80;99.90
837;DHT22;400;53.550;9.932;2023-04-15T15:06:09;14.80;99.90
837;DHT22;400;53.550;9.932;2023-04-15T15:08:37;14.80;99.90
837;DHT22;400;53.550;9.932;2023-04-15T15:11:07;14.80;99.90
837;DHT22;400;53.550;9.932;2023-04-15T15:13:34;14.80;99.90
837;DHT22;400;53.550;9.932;2023-04-15T15:16:06;14.60;99.90
837;DHT22;400;53.550;9.932;2023-04-15T15:18:36;14.60;99.90
837;DHT22;400;53.550;9.932;2023-04-15T15:21:03;14.60;99.90
837;DHT22;400;53.550;9.932;2023-04-15T15:23:30;14.50;99.90
837;DHT22;400;53.550;9.932;2023-04-15T15:25:59;14.50;99.90
837;DHT22;400;53.550;9.932;2023-04-15T15:28:29;14.40;99.90
837;DHT22;400;53.550;9.932;2023-04-15T15:31:01;14.30;99.90
837;DHT22;400;53.550;9.932;2023-04-15T15:33:36;14.30;99.90
837;DHT22;400;53.550;9.932;2023-04-15T15:36:09;14.40;99.90
837;DHT22;400;53.550;9.932;2023-04-15T15:38:39;14.40;99.90
837;DHT22;400;53.550;9.932;2023-04-15T15:41:06;14.50;99.90
837;DHT22;400;53.550;9.932;2023-04-15T15:43:33;14.50;99.90
837;DHT22;400;53.550;9.932;2023-04-15T15:46:00;14.40;99.90
837;DHT22;400;53.550;9.932;2023-04-15T15:48:27;14.50;99.90
837;DHT22;400;53.550;9.932;2023-04-15T15:50:55;14.30;99.90
837;DHT22;400;53.550;9.932;2023-04-15T15:53:22;14.30;99.90
837;DHT22;400;53.550;9.932;2023-04-15T15:55:50;14.30;99.90
837;DHT22;400;53.550;9.932;2023-04-15T15:58:17;14.20;99.90
837;DHT22;400;53.550;9.932;2023-04-15T16:00:45;14.20;99.90
837;DHT22;400;53.550;9.932;2023-04-15T16:03:15;14.20;99.90
837;DHT22;400;53.550;9.932;2023-04-15T16:05:47;14.10;99.90
837;DHT22;400;53.550;9.932;2023-04-15T16:08:23;14.10;99.90
837;DHT22;400;53.550;9.932;2023-04-15T16:10:54;14.10;99.90
837;DHT22;400;53.550;9.932;2023-04-15T16:13:22;14.00;99.90
837;DHT22;400;53.550;9.932;2023-04-15T16:15:51;13.90;99.90
837;DHT22;400;53.550;9.932;2023-04-15T16:18:20;14.00;99.90
837;DHT22;400;53.550;9.932;2023-04-15T16:20:47;13.90;99.90
837;DHT22;400;53.550;9.932;2023-04-15T16:23:15;13.90;99.90
837;DHT22;400;53.550;9.932;2023-04-15T16:25:44;13.80;99.90
837;DHT22;400;53.550;9.932;2023-04-15T16:28:11;13.80;99.90
837;DHT22;400;53.550;9.932;2023-04-15T16:30:40;13.80;99.90
837;DHT22;400;53.550;9.932;2023-04-15T16:33:08;13.80;99.90
837;DHT22;400;53.550;9.932;2023-04-15T16:35:37;13.80;99.90
837;DHT22;400;53.550;9.932;2023-04-15T16:38:06;13.80;99.90
837;DHT22;400;53.550;9.932;2023-04-15T16:40:34;13.80;99.90
837;DHT22;400;53.550;9.932;2023-04-15T16:43:04;13.80;99.90
837;DHT22;400;53.550;9.932;2023-04-15T16:45:38;13.80;99.90
837;DHT22;400;53.550;9.932;2023-04-15T16:48:17;13.70;99.90
837;DHT22;400;53.550;9.932;2023-04-15T16:50:50;13.70;99.90
837;DHT22;400;53.550;9.932;2023-04-15T16:53:18;13.60;99.90
837;DHT22;400;53.550;9.932;2023-04-15T16:55:45;13.60;99.90
837;DHT22;400;53.550;9.932;2023-04-15T16:58:14;13.60;99.90
837;DHT22;400;53.550;9.932;2023-04-15T17:00:40;13.50;99.90
837;DHT22;400;53.550;9.932;2023-04-15T17:03:10;13.40;99.90